createdAt,value
2023-02-20T00:01:56.612Z,100428.42
2023-02-20T00:04:30.335Z,100424.84
2023-02-20T00:07:03.820Z,100422.66
2023-02-20T00:09:37.409Z,100425.05
2023-02-20T00:12:11.870Z,100421.30
2023-02-20T00:14:45.389Z,100410.34
2023-02-20T00:17:18.862Z,100408.91
2023-02-20T00:19:52.269Z,100400.67
2023-02-20T00:22:27.121Z,100400.98
2023-02-20T00:25:00.923Z,100400.27
2023-02-20T00:27:34.440Z,100395.52
2023-02-20T00:30:09.997Z,100398.55
2023-02-20T00:32:43.666Z,100402.20
2023-02-20T00:35:18.045Z,100400.11
2023-02-20T00:37:52.440Z,100403.13
2023-02-20T00:40:27.700Z,100405.15
2023-02-20T00:43:01.586Z,100412.44
2023-02-20T00:45:35.607Z,100410.93
2023-02-20T00:48:09.608Z,100409.66
2023-02-20T00:50:43.176Z,100409.30
2023-02-20T00:53:17.195Z,100406.14
2023-02-20T00:55:50.724Z,100410.52
2023-02-20T00:58:24.265Z,100409.03
2023-02-20T01:00:58.068Z,100403.16
2023-02-20T01:03:31.891Z,100401.52
2023-02-20T01:06:05.967Z,100404.45
2023-02-20T01:08:39.564Z,100399.41
2023-02-20T01:11:13.313Z,100389.65
2023-02-20T01:13:46.856Z,100391.63
2023-02-20T01:16:20.471Z,100397.66
2023-02-20T01:18:54.660Z,100401.68
2023-02-20T01:21:28.197Z,100404.05
2023-02-20T01:24:01.790Z,100401.93
2023-02-20T01:26:36.812Z,100399.92
2023-02-20T01:29:10.342Z,100391.55
2023-02-20T01:31:48.249Z,100381.34
2023-02-20T01:34:21.528Z,100383.47
2023-02-20T01:36:56.701Z,100382.33
2023-02-20T01:39:33.303Z,100382.58
2023-02-20T01:42:10.293Z,100379.73
2023-02-20T01:44:44.190Z,100384.84
2023-02-20T01:47:20.210Z,100388.73
2023-02-20T01:49:57.447Z,100389.03
2023-02-20T01:52:33.845Z,100385.59
2023-02-20T01:55:12.912Z,100379.63
2023-02-20T01:57:52.712Z,100373.65
2023-02-20T02:00:27.459Z,100367.30
2023-02-20T02:03:07.015Z,100367.39
2023-02-20T02:05:46.363Z,100367.59
2023-02-20T02:08:20.088Z,100369.58
2023-02-20T02:11:03.669Z,100369.53
2023-02-20T02:13:41.734Z,100369.81
2023-02-20T02:16:28.358Z,100370.85
2023-02-20T02:19:11.115Z,100361.58
2023-02-20T02:22:34.747Z,100357.15
2023-02-20T02:25:33.212Z,100359.89
2023-02-20T02:28:49.628Z,100362.64
2023-02-20T02:31:52.826Z,100368.31
2023-02-20T02:34:58.662Z,100364.59
2023-02-20T02:37:40.132Z,100368.65
2023-02-20T02:40:25.497Z,100367.55
2023-02-20T02:43:10.293Z,100364.17
2023-02-20T02:45:53.032Z,100359.20
2023-02-20T02:48:37.844Z,100360.38
2023-02-20T02:51:18.017Z,100359.71
2023-02-20T02:54:07.935Z,100359.97
2023-02-20T02:56:43.223Z,100358.08
2023-02-20T02:59:20.015Z,100358.81
2023-02-20T03:02:03.603Z,100365.45
2023-02-20T03:04:40.027Z,100365.58
2023-02-20T03:07:16.972Z,100360.68
2023-02-20T03:09:54.654Z,100356.95
2023-02-20T03:12:31.010Z,100356.69
2023-02-20T03:15:29.859Z,100358.95
2023-02-20T03:18:11.017Z,100360.96
2023-02-20T03:20:48.017Z,100362.98
2023-02-20T03:23:26.832Z,100359.68
2023-02-20T03:26:04.857Z,100358.25
2023-02-20T03:28:44.156Z,100350.07
2023-02-20T03:31:23.577Z,100349.04
2023-02-20T03:34:17.983Z,100348.73
2023-02-20T03:37:16.470Z,100345.30
2023-02-20T03:40:11.997Z,100345.95
2023-02-20T03:43:07.462Z,100346.09
2023-02-20T03:45:46.186Z,100349.89
2023-02-20T03:48:30.038Z,100346.18
2023-02-20T03:51:04.474Z,100345.50
2023-02-20T03:53:45.095Z,100344.89
2023-02-20T03:56:22.499Z,100345.96
2023-02-20T03:59:00.477Z,100343.45
2023-02-20T04:01:36.847Z,100338.48
2023-02-20T04:04:18.458Z,100337.64
2023-02-20T04:06:55.148Z,100342.95
2023-02-20T04:09:33.149Z,100342.52
2023-02-20T04:12:12.781Z,100343.08
2023-02-20T04:14:51.742Z,100340.59
2023-02-20T04:17:29.013Z,100334.77
2023-02-20T04:20:03.576Z,100330.89
2023-02-20T04:22:43.932Z,100327.23
2023-02-20T04:25:27.245Z,100325.67
2023-02-20T04:28:01.316Z,100322.48
2023-02-20T04:30:36.085Z,100320.95
2023-02-20T04:33:11.647Z,100318.99
2023-02-20T04:35:45.541Z,100317.66
2023-02-20T04:38:19.626Z,100316.29
2023-02-20T04:40:53.571Z,100313.20
2023-02-20T04:43:27.969Z,100306.65
2023-02-20T04:46:02.042Z,100303.70
2023-02-20T04:48:36.496Z,100302.45
2023-02-20T04:51:11.246Z,100294.45
2023-02-20T04:53:45.386Z,100285.73
2023-02-20T04:56:19.167Z,100285.02
2023-02-20T04:58:53.574Z,100287.45
2023-02-20T05:01:29.713Z,100284.45
2023-02-20T05:04:03.713Z,100284.59
2023-02-20T05:06:42.114Z,100280.73
2023-02-20T05:09:15.495Z,100276.98
2023-02-20T05:11:49.477Z,100280.16
2023-02-20T05:14:23.481Z,100277.66
2023-02-20T05:16:57.288Z,100274.42
2023-02-20T05:19:31.282Z,100266.52
2023-02-20T05:22:20.736Z,100266.24
2023-02-20T05:24:54.861Z,100261.25
2023-02-20T05:27:29.207Z,100256.54
2023-02-20T05:30:03.549Z,100260.39
2023-02-20T05:32:37.598Z,100260.89
2023-02-20T05:35:11.626Z,100261.24
2023-02-20T05:37:45.316Z,100268.75
2023-02-20T05:40:19.126Z,100271.20
2023-02-20T05:42:53.054Z,100273.28
2023-02-20T05:45:26.613Z,100261.35
2023-02-20T05:48:00.811Z,100257.70
2023-02-20T05:50:34.535Z,100253.15
2023-02-20T05:53:07.995Z,100242.69
2023-02-20T05:55:41.472Z,100235.11
2023-02-20T05:58:15.670Z,100238.05
2023-02-20T06:00:49.310Z,100239.30
2023-02-20T06:03:23.059Z,100236.75
2023-02-20T06:05:56.811Z,100232.63
2023-02-20T06:08:31.065Z,100226.52
2023-02-20T06:11:04.877Z,100229.34
2023-02-20T06:13:38.527Z,100235.27
2023-02-20T06:16:13.662Z,100237.55
2023-02-20T06:18:47.653Z,100229.50
2023-02-20T06:21:23.392Z,100220.85
2023-02-20T06:23:57.846Z,100218.36
2023-02-20T06:26:31.555Z,100215.88
2023-02-20T06:29:06.219Z,100214.95
2023-02-20T06:31:40.155Z,100213.41
2023-02-20T06:34:14.999Z,100210.93
2023-02-20T06:36:49.248Z,100209.29
2023-02-20T06:39:22.642Z,100206.23
2023-02-20T06:41:56.773Z,100197.64
2023-02-20T06:44:30.984Z,100189.67
2023-02-20T06:47:09.346Z,100190.48
2023-02-20T06:49:44.511Z,100195.25
2023-02-20T06:52:18.270Z,100197.23
2023-02-20T06:54:53.321Z,100197.00
2023-02-20T06:57:27.256Z,100187.94
2023-02-20T07:00:01.178Z,100177.92
2023-02-20T07:02:37.516Z,100173.98
2023-02-20T07:05:13.152Z,100175.05
2023-02-20T07:07:47.386Z,100179.79
2023-02-20T07:10:21.140Z,100182.35
2023-02-20T07:12:55.075Z,100180.23
2023-02-20T07:15:29.405Z,100178.16
2023-02-20T07:18:03.148Z,100165.73
2023-02-20T07:20:36.852Z,100161.90
2023-02-20T07:23:31.903Z,100159.98
2023-02-20T07:26:24.098Z,100164.04
2023-02-20T07:29:16.490Z,100163.21
2023-02-20T07:32:09.577Z,100161.63
2023-02-20T07:35:06.071Z,100153.95
2023-02-20T07:37:58.192Z,100150.95
2023-02-20T07:40:31.707Z,100156.16
2023-02-20T07:43:05.388Z,100156.45
2023-02-20T07:45:45.556Z,100162.90
2023-02-20T07:48:19.389Z,100158.59
2023-02-20T07:50:53.475Z,100157.93
2023-02-20T07:53:26.930Z,100145.92
2023-02-20T07:56:00.947Z,100129.13
2023-02-20T07:58:34.858Z,100125.36
2023-02-20T08:01:08.629Z,100119.81
2023-02-20T08:03:42.607Z,100111.65
2023-02-20T08:06:18.644Z,100103.52
2023-02-20T08:08:55.455Z,100094.61
2023-02-20T08:11:28.921Z,100087.52
2023-02-20T08:14:02.823Z,100077.80
2023-02-20T08:16:36.553Z,100073.09
2023-02-20T08:19:10.402Z,100072.73
2023-02-20T08:21:44.020Z,100063.52
2023-02-20T08:24:17.886Z,100061.83
2023-02-20T08:26:52.361Z,100062.59
2023-02-20T08:29:26.030Z,100057.91
2023-02-20T08:32:00.254Z,100055.84
2023-02-20T08:34:34.341Z,100046.20
2023-02-20T08:37:10.408Z,100038.37
2023-02-20T08:39:43.936Z,100033.91
2023-02-20T08:42:20.220Z,100035.90
2023-02-20T08:44:54.089Z,100029.61
2023-02-20T08:47:27.620Z,100027.67
2023-02-20T08:50:01.506Z,100026.73
2023-02-20T08:52:35.416Z,100022.35
2023-02-20T08:55:09.804Z,100023.06
2023-02-20T08:57:46.457Z,100018.75
2023-02-20T09:00:21.290Z,100013.05
2023-02-20T09:02:55.623Z,100012.08
2023-02-20T09:05:30.128Z,100001.08
2023-02-20T09:08:04.012Z,99994.05
2023-02-20T09:10:38.130Z,99986.08
2023-02-20T09:13:12.292Z,99976.67
2023-02-20T09:15:46.655Z,99964.14
2023-02-20T09:18:20.681Z,99954.24
2023-02-20T09:20:55.553Z,99950.52
2023-02-20T09:23:29.214Z,99943.77
2023-02-20T09:26:03.495Z,99938.44
2023-02-20T09:28:37.121Z,99928.55
2023-02-20T09:31:11.209Z,99925.63
2023-02-20T09:33:51.461Z,99908.11
2023-02-20T09:36:26.190Z,99892.38
2023-02-20T09:39:00.098Z,99887.64
2023-02-20T09:41:51.661Z,99880.48
2023-02-20T09:44:38.727Z,99865.70
2023-02-20T09:47:29.055Z,99858.60
2023-02-20T09:50:08.805Z,99851.35
2023-02-20T09:52:45.946Z,99842.47
2023-02-20T09:55:24.210Z,99831.38
2023-02-20T09:57:59.764Z,99818.11
2023-02-20T10:00:35.823Z,99806.41
2023-02-20T10:03:24.569Z,99795.73
2023-02-20T10:05:59.551Z,99793.48
2023-02-20T10:08:33.048Z,99789.68
2023-02-20T10:11:10.094Z,99783.30
2023-02-20T10:13:54.998Z,99776.46
2023-02-20T10:16:36.659Z,99768.98
2023-02-20T10:19:23.365Z,99761.86
2023-02-20T10:22:03.933Z,99758.52
2023-02-20T10:24:53.884Z,99749.68
2023-02-20T10:27:33.126Z,99745.62
2023-02-20T10:30:08.693Z,99748.06
2023-02-20T10:32:50.162Z,99747.08
2023-02-20T10:35:28.566Z,99738.42
2023-02-20T10:38:04.994Z,99729.38
2023-02-20T10:40:43.850Z,99723.98
2023-02-20T10:43:22.028Z,99712.92
2023-02-20T10:46:03.919Z,99708.60
2023-02-20T10:48:40.252Z,99702.06
2023-02-20T10:51:21.073Z,99703.92
2023-02-20T10:54:01.221Z,99695.60
2023-02-20T10:56:42.505Z,99689.70
2023-02-20T10:59:24.180Z,99683.52
2023-02-20T11:02:00.470Z,99670.92
2023-02-20T11:04:38.305Z,99656.55
2023-02-20T11:07:15.979Z,99646.29
2023-02-20T11:09:49.718Z,99647.16
2023-02-20T11:12:32.367Z,99644.08
2023-02-20T11:15:11.809Z,99636.04
2023-02-20T11:17:44.232Z,99634.52
2023-02-20T11:20:43.014Z,99614.84
2023-02-20T11:23:38.413Z,99588.15
2023-02-20T11:26:32.295Z,99522.38
2023-02-20T11:29:15.411Z,99492.66
2023-02-20T11:31:50.146Z,99509.61
2023-02-20T11:34:26.219Z,99500.31
2023-02-20T11:37:07.211Z,99491.90
2023-02-20T11:39:47.700Z,99476.03
2023-02-20T11:42:24.098Z,99481.76
2023-02-20T11:45:16.495Z,99475.32
2023-02-20T11:48:07.782Z,99450.51
2023-02-20T11:50:46.820Z,99431.33
2023-02-20T11:53:25.830Z,99425.85
2023-02-20T11:56:14.600Z,99419.45
2023-02-20T11:58:49.470Z,99404.67
2023-02-20T12:01:36.024Z,99399.98
2023-02-20T12:04:22.700Z,99388.73
2023-02-20T12:06:56.550Z,99372.05
2023-02-20T12:09:32.229Z,99360.67
2023-02-20T12:12:05.931Z,99348.97
2023-02-20T12:14:40.232Z,99322.59
2023-02-20T12:17:24.998Z,99299.01
2023-02-20T12:20:05.722Z,99283.68
2023-02-20T12:22:46.633Z,99284.11
2023-02-20T12:25:29.345Z,99284.54
2023-02-20T12:28:15.724Z,99290.73
2023-02-20T12:31:06.964Z,99293.05
2023-02-20T12:34:12.967Z,99298.45
2023-02-20T12:36:53.050Z,99285.14
2023-02-20T12:39:36.247Z,99267.63
2023-02-20T12:42:23.022Z,99270.84
2023-02-20T12:45:24.898Z,99285.06
2023-02-20T12:48:12.589Z,99281.81
2023-02-20T12:50:59.945Z,99281.94
2023-02-20T12:53:47.877Z,99277.56
2023-02-20T12:56:32.280Z,99279.20
2023-02-20T12:59:17.091Z,99278.30
2023-02-20T13:01:52.753Z,99283.28
2023-02-20T13:04:35.250Z,99281.73
2023-02-20T13:07:17.512Z,99278.78
2023-02-20T13:10:03.709Z,99277.67
2023-02-20T13:12:37.588Z,99292.20
2023-02-20T13:15:29.179Z,99283.25
2023-02-20T13:18:08.958Z,99263.05
2023-02-20T13:20:47.290Z,99269.87
2023-02-20T13:23:41.973Z,99257.73
2023-02-20T13:26:49.879Z,99247.47
2023-02-20T13:29:27.361Z,99245.64
2023-02-20T13:32:02.919Z,99249.35
2023-02-20T13:34:41.702Z,99245.02
2023-02-20T13:37:57.875Z,99224.38
2023-02-20T13:40:46.528Z,99216.54
2023-02-20T13:43:35.300Z,99208.65
2023-02-20T13:46:25.582Z,99206.30
2023-02-20T13:48:59.655Z,99181.02
2023-02-20T13:51:43.104Z,99185.34
2023-02-20T13:54:30.584Z,99186.71
2023-02-20T13:57:19.565Z,99180.36
2023-02-20T13:59:56.571Z,99182.33
2023-02-20T14:02:31.464Z,99180.02
2023-02-20T14:05:07.196Z,99181.10
2023-02-20T14:07:46.034Z,99191.05
2023-02-20T14:10:26.299Z,99181.63
2023-02-20T14:13:07.802Z,99168.41
2023-02-20T14:15:51.118Z,99166.98
2023-02-20T14:18:29.907Z,99154.20
2023-02-20T14:21:23.184Z,99146.08
2023-02-20T14:23:56.849Z,99148.06
2023-02-20T14:26:31.932Z,99145.66
2023-02-20T14:29:09.998Z,99126.55
2023-02-20T14:31:44.064Z,99133.95
2023-02-20T14:34:24.908Z,99130.17
2023-02-20T14:37:09.543Z,99122.27
2023-02-20T14:39:52.686Z,99125.65
2023-02-20T14:42:27.622Z,99133.77
2023-02-20T14:45:07.353Z,99123.44
2023-02-20T14:47:54.232Z,99103.52
2023-02-20T14:50:34.382Z,99097.17
2023-02-20T14:53:21.142Z,99100.20
2023-02-20T14:55:55.106Z,99107.52
2023-02-20T14:58:29.086Z,99098.66
2023-02-20T15:01:03.685Z,99092.17
2023-02-20T15:03:37.613Z,99088.60
2023-02-20T15:06:17.179Z,99084.39
2023-02-20T15:09:21.849Z,99097.31
2023-02-20T15:11:59.602Z,99089.27
2023-02-20T15:14:34.683Z,99080.63
2023-02-20T15:17:21.802Z,99066.25
2023-02-20T15:19:55.916Z,99069.05
2023-02-20T15:22:33.399Z,99070.92
2023-02-20T15:25:32.443Z,99080.21
2023-02-20T15:28:14.077Z,99073.37
2023-02-20T15:31:18.511Z,99068.02
2023-02-20T15:33:55.296Z,99060.35
2023-02-20T15:36:29.599Z,99060.00
2023-02-20T15:39:03.668Z,99055.55
2023-02-20T15:41:37.347Z,99051.55
2023-02-20T15:44:11.923Z,99054.20
2023-02-20T15:46:45.696Z,99064.57
2023-02-20T15:49:20.999Z,99056.48
2023-02-20T15:52:01.707Z,99054.84
2023-02-20T15:54:39.728Z,99048.52
2023-02-20T15:57:19.449Z,99041.35
2023-02-20T15:59:54.682Z,99037.86
2023-02-20T16:02:28.587Z,99040.67
2023-02-20T16:05:02.962Z,99033.48
2023-02-20T16:07:39.436Z,99022.92
2023-02-20T16:10:18.224Z,99016.77
2023-02-20T16:12:55.878Z,99008.18
2023-02-20T16:15:30.116Z,99007.86
2023-02-20T16:18:06.231Z,99016.80
2023-02-20T16:20:40.833Z,99013.79
2023-02-20T16:23:15.330Z,99020.15
2023-02-20T16:25:52.018Z,99017.98
2023-02-20T16:28:26.547Z,99004.72
2023-02-20T16:31:04.992Z,99011.34
2023-02-20T16:33:42.803Z,99004.13
2023-02-20T16:36:24.783Z,99001.70
2023-02-20T16:39:00.920Z,99011.63
2023-02-20T16:41:36.148Z,99004.27
2023-02-20T16:44:17.591Z,99004.85
2023-02-20T16:46:54.904Z,99004.70
2023-02-20T16:49:37.641Z,99004.27
2023-02-20T16:52:20.115Z,99005.41
2023-02-20T16:54:56.040Z,99005.94
2023-02-20T16:57:32.647Z,99007.55
2023-02-20T17:00:10.231Z,99002.52
2023-02-20T17:02:45.125Z,98993.81
2023-02-20T17:05:20.553Z,99002.30
2023-02-20T17:07:55.468Z,99000.55
2023-02-20T17:10:32.006Z,98998.86
2023-02-20T17:13:24.969Z,98997.98
2023-02-20T17:15:59.538Z,98994.55
2023-02-20T17:18:34.771Z,98992.23
2023-02-20T17:21:10.401Z,98986.64
2023-02-20T17:23:47.508Z,98988.48
2023-02-20T17:26:22.831Z,98977.31
2023-02-20T17:28:57.991Z,98975.00
2023-02-20T17:31:36.217Z,98975.80
2023-02-20T17:34:15.042Z,98977.65
2023-02-20T17:36:50.497Z,98979.54
2023-02-20T17:39:26.833Z,98971.59
2023-02-20T17:42:10.609Z,98968.79
2023-02-20T17:44:54.152Z,98968.02
2023-02-20T17:47:38.660Z,98966.66
2023-02-20T17:50:15.328Z,98956.70
2023-02-20T17:52:55.651Z,98953.30
2023-02-20T17:55:34.917Z,98955.00
2023-02-20T17:58:12.426Z,98953.27
2023-02-20T18:00:49.554Z,98955.37
2023-02-20T18:03:26.487Z,98955.75
2023-02-20T18:06:02.466Z,98945.40
2023-02-20T18:08:39.537Z,98947.29
2023-02-20T18:11:31.739Z,98949.01
2023-02-20T18:14:10.282Z,98947.48
2023-02-20T18:16:44.764Z,98947.64
2023-02-20T18:19:22.545Z,98949.25
2023-02-20T18:21:59.921Z,98958.95
2023-02-20T18:24:37.019Z,98955.70
2023-02-20T18:27:15.092Z,98960.91
2023-02-20T18:29:52.268Z,98955.92
2023-02-20T18:32:29.770Z,98951.11
2023-02-20T18:35:08.175Z,98947.75
2023-02-20T18:37:46.111Z,98938.05
2023-02-20T18:40:26.231Z,98935.60
2023-02-20T18:43:08.825Z,98923.89
2023-02-20T18:45:47.673Z,98917.93
2023-02-20T18:48:26.739Z,98926.37
2023-02-20T18:51:04.059Z,98919.64
2023-02-20T18:53:42.376Z,98926.91
2023-02-20T18:56:19.984Z,98924.84
2023-02-20T18:59:05.787Z,98927.89
2023-02-20T19:01:46.501Z,98932.77
2023-02-20T19:04:34.375Z,98934.07
2023-02-20T19:07:14.289Z,98935.22
2023-02-20T19:09:57.329Z,98934.90
2023-02-20T19:12:35.936Z,98935.45
2023-02-20T19:15:13.859Z,98932.91
2023-02-20T19:17:52.017Z,98936.13
2023-02-20T19:20:33.892Z,98920.48
2023-02-20T19:23:13.337Z,98930.39
2023-02-20T19:26:00.166Z,98938.25
2023-02-20T19:28:39.541Z,98941.45
2023-02-20T19:31:22.580Z,98936.99
2023-02-20T19:33:58.852Z,98934.86
2023-02-20T19:36:36.145Z,98932.50
2023-02-20T19:39:17.642Z,98928.42
2023-02-20T19:41:56.707Z,98930.73
2023-02-20T19:44:32.678Z,98928.02
2023-02-20T19:47:11.461Z,98924.39
2023-02-20T19:49:50.877Z,98931.17
2023-02-20T19:52:32.729Z,98922.93
2023-02-20T19:55:22.574Z,98923.48
2023-02-20T19:58:01.675Z,98924.35
2023-02-20T20:00:42.226Z,98924.34
2023-02-20T20:03:19.412Z,98921.64
2023-02-20T20:05:57.343Z,98918.05
2023-02-20T20:08:34.985Z,98916.75
2023-02-20T20:11:11.898Z,98910.63
2023-02-20T20:13:51.500Z,98912.29
2023-02-20T20:16:29.846Z,98910.61
2023-02-20T20:19:05.267Z,98907.89
2023-02-20T20:21:42.824Z,98906.53
2023-02-20T20:24:19.724Z,98912.59
2023-02-20T20:27:21.987Z,98908.48
2023-02-20T20:30:07.021Z,98912.86
2023-02-20T20:32:45.933Z,98910.10
2023-02-20T20:35:24.752Z,98902.67
2023-02-20T20:38:03.457Z,98910.01
2023-02-20T20:40:45.296Z,98908.34
2023-02-20T20:43:23.053Z,98907.30
2023-02-20T20:46:01.234Z,98904.88
2023-02-20T20:48:45.023Z,98908.89
2023-02-20T20:51:21.985Z,98914.69
2023-02-20T20:54:02.758Z,98914.59
2023-02-20T20:56:46.545Z,98918.71
2023-02-20T20:59:23.877Z,98922.09
2023-02-20T21:02:01.233Z,98919.41
2023-02-20T21:04:41.722Z,98917.73
2023-02-20T21:07:19.463Z,98911.02
2023-02-20T21:09:55.628Z,98915.80
2023-02-20T21:12:34.105Z,98916.71
2023-02-20T21:15:10.635Z,98916.83
2023-02-20T21:17:46.952Z,98921.37
2023-02-20T21:20:26.739Z,98929.73
2023-02-20T21:23:02.314Z,98932.97
2023-02-20T21:25:38.149Z,98943.14
2023-02-20T21:28:14.347Z,98938.35
2023-02-20T21:30:50.264Z,98938.95
2023-02-20T21:33:24.357Z,98936.13
2023-02-20T21:36:03.985Z,98937.27
2023-02-20T21:38:38.465Z,98935.73
2023-02-20T21:41:33.571Z,98936.05
2023-02-20T21:44:28.832Z,98950.64
2023-02-20T21:47:06.276Z,98944.79
2023-02-20T21:49:46.436Z,98938.56
2023-02-20T21:52:21.940Z,98937.27
2023-02-20T21:54:56.596Z,98934.17
2023-02-20T21:57:30.443Z,98929.15
2023-02-20T22:00:03.724Z,98925.28
2023-02-20T22:02:38.825Z,98919.06
2023-02-20T22:05:11.750Z,98928.55
2023-02-20T22:08:03.109Z,98919.28
2023-02-20T22:10:54.266Z,98926.23
2023-02-20T22:13:46.596Z,98924.98
2023-02-20T22:16:40.392Z,98929.77
2023-02-20T22:19:32.195Z,98931.73
2023-02-20T22:22:22.735Z,98925.77
2023-02-20T22:25:14.137Z,98921.97
2023-02-20T22:28:05.335Z,98920.67
2023-02-20T22:30:56.356Z,98924.20
2023-02-20T22:33:48.637Z,98925.84
2023-02-20T22:36:40.231Z,98931.70
2023-02-20T22:39:33.697Z,98932.35
2023-02-20T22:42:34.382Z,98932.19
2023-02-20T22:45:29.368Z,98933.38
2023-02-20T22:48:20.645Z,98938.70
2023-02-20T22:51:11.937Z,98930.91
2023-02-20T22:54:04.640Z,98932.48
2023-02-20T22:56:55.401Z,98935.61
2023-02-20T22:59:47.045Z,98935.44
2023-02-20T23:02:38.406Z,98933.85
2023-02-20T23:05:29.927Z,98938.23
2023-02-20T23:08:20.579Z,98946.08
2023-02-20T23:11:12.504Z,98939.52
2023-02-20T23:14:04.331Z,98937.61
2023-02-20T23:16:55.453Z,98935.69
2023-02-20T23:19:46.416Z,98936.43
2023-02-20T23:22:37.925Z,98945.41
2023-02-20T23:25:29.127Z,98955.16
2023-02-20T23:28:23.936Z,98961.92
2023-02-20T23:31:20.341Z,98959.29
2023-02-20T23:34:12.250Z,98949.38
2023-02-20T23:37:09.047Z,98948.19
2023-02-20T23:40:00.454Z,98955.08
2023-02-20T23:42:51.762Z,98948.84
2023-02-20T23:45:43.668Z,98955.24
2023-02-20T23:48:35.115Z,98962.29
2023-02-20T23:51:30.721Z,98951.34
2023-02-20T23:54:22.441Z,98950.02
2023-02-20T23:57:13.838Z,98947.70
